58.2°F
Current conditions from King Hill
Updated every 5 minutes
 
  Saturday August 30, 2014

Station Historical Data
Daily Summary for March 17, 2012 Units:  Both    English   Metric
« Previous Day
Next Day »
Daily Weekly Monthly Yearly Custom
  High: Low: Average:
Temperature: 59.0 °F /  15 °C 34.5 °F /  1.4 °C 45.9 °F /  7.7 °C
Dew Point: 44.3 °F /  6.8 °C 33.2 °F /  0.7 °C 38.5 °F /  3.6 °C
Humidity: 96% 56% 77%
Wind Speed: 8.0mph /  12.9km/h - 3.2mph /  5.1km/h
Wind Gust: 15.0mph /  24.1km/h - -
Wind- - SSW
Pressure: 30.32 in /  1026.6 hPa 30.17 in /  1021.6 hPa -
Precipitation: 0.01 in /  0.3 mm    
Historical Graphs
 
 
Tabular Data for March 17, 2012
Time Temperature Dew Point Pressure Wind Wind Speed Wind Gust Humidity Daily Rainfall
00:00 38.2 °F /  3.4 °C 36.9 °F /  2.7 °C 30.22in /  1023.2hPa Calm   3.0mph /  4.8km/h 95% 0.41in /  10.4mm
00:05 38.1 °F /  3.4 °C 36.8 °F /  2.7 °C 30.22in /  1023.2hPa Calm   5.0mph /  8km/h 95% 0.00in /  0mm
00:10 38.1 °F /  3.4 °C 36.8 °F /  2.7 °C 30.22in /  1023.2hPa Calm   5.0mph /  8km/h 95% 0.00in /  0mm
00:15 38.1 °F /  3.4 °C 36.8 °F /  2.7 °C 30.22in /  1023.2hPa Calm   2.0mph /  3.2km/h 95% 0.00in /  0mm
00:20 38.0 °F /  3.3 °C 36.7 °F /  2.6 °C 30.22in /  1023.2hPa NNE 1.0mph /  1.6km/h 4.0mph /  6.4km/h 95% 0.00in /  0mm
00:30 38.0 °F /  3.3 °C 36.7 °F /  2.6 °C 30.23in /  1023.6hPa Calm   3.0mph /  4.8km/h 95% 0.00in /  0mm
00:40 38.0 °F /  3.3 °C 36.7 °F /  2.6 °C 30.23in /  1023.6hPa Calm   2.0mph /  3.2km/h 95% 0.00in /  0mm
00:50 38.1 °F /  3.4 °C 36.8 °F /  2.7 °C 30.23in /  1023.6hPa Calm   2.0mph /  3.2km/h 95% 0.00in /  0mm
00:55 38.1 °F /  3.4 °C 36.8 °F /  2.7 °C 30.23in /  1023.6hPa Calm   1.0mph /  1.6km/h 95% 0.00in /  0mm
01:00 38.1 °F /  3.4 °C 36.8 °F /  2.7 °C 30.23in /  1023.6hPa Calm   3.0mph /  4.8km/h 95% 0.00in /  0mm
01:05 38.1 °F /  3.4 °C 36.8 °F /  2.7 °C 30.23in /  1023.6hPa Calm   4.0mph /  6.4km/h 95% 0.00in /  0mm
01:10 38.0 °F /  3.3 °C 36.7 °F /  2.6 °C 30.23in /  1023.6hPa Calm   4.0mph /  6.4km/h 95% 0.00in /  0mm
01:15 38.1 °F /  3.4 °C 36.8 °F /  2.7 °C 30.23in /  1023.6hPa NNE 1.0mph /  1.6km/h 4.0mph /  6.4km/h 95% 0.00in /  0mm
01:20 38.0 °F /  3.3 °C 36.7 °F /  2.6 °C 30.23in /  1023.6hPa Calm   4.0mph /  6.4km/h 95% 0.00in /  0mm
01:25 38.0 °F /  3.3 °C 36.7 °F /  2.6 °C 30.23in /  1023.6hPa NNE 1.0mph /  1.6km/h 2.0mph /  3.2km/h 95% 0.01in /  0.3mm
01:30 38.0 °F /  3.3 °C 36.7 °F /  2.6 °C 30.23in /  1023.6hPa Calm   2.0mph /  3.2km/h 95% 0.01in /  0.3mm
01:35 37.9 °F /  3.3 °C 36.6 °F /  2.6 °C 30.23in /  1023.6hPa Calm     95% 0.01in /  0.3mm
01:45 37.9 °F /  3.3 °C 36.6 °F /  2.6 °C 30.23in /  1023.6hPa Calm     95% 0.01in /  0.3mm
01:50 37.8 °F /  3.2 °C 36.5 °F /  2.5 °C 30.23in /  1023.6hPa Calm     95% 0.01in /  0.3mm
01:55 37.8 °F /  3.2 °C 36.5 °F /  2.5 °C 30.22in /  1023.2hPa Calm     95% 0.01in /  0.3mm
02:00 37.8 °F /  3.2 °C 36.5 °F /  2.5 °C 30.22in /  1023.2hPa Calm     95% 0.01in /  0.3mm
02:05 37.7 °F /  3.2 °C 36.4 °F /  2.4 °C 30.22in /  1023.2hPa Calm     95% 0.01in /  0.3mm
02:10 37.7 °F /  3.2 °C 36.4 °F /  2.4 °C 30.22in /  1023.2hPa Calm     95% 0.01in /  0.3mm
02:15 37.7 °F /  3.2 °C 36.4 °F /  2.4 °C 30.23in /  1023.6hPa Calm     95% 0.01in /  0.3mm
02:20 37.7 °F /  3.2 °C 36.4 °F /  2.4 °C 30.22in /  1023.2hPa Calm     95% 0.01in /  0.3mm
02:25 37.7 °F /  3.2 °C 36.4 °F /  2.4 °C 30.23in /  1023.6hPa Calm   1.0mph /  1.6km/h 95% 0.01in /  0.3mm
02:30 37.7 °F /  3.2 °C 36.4 °F /  2.4 °C 30.23in /  1023.6hPa Calm   1.0mph /  1.6km/h 95% 0.01in /  0.3mm
02:35 37.7 °F /  3.2 °C 36.4 °F /  2.4 °C 30.23in /  1023.6hPa Calm     95% 0.01in /  0.3mm
02:40 37.7 °F /  3.2 °C 36.4 °F /  2.4 °C 30.23in /  1023.6hPa Calm     95% 0.01in /  0.3mm
02:50 37.7 °F /  3.2 °C 36.4 °F /  2.4 °C 30.23in /  1023.6hPa Calm     95% 0.01in /  0.3mm
02:55 37.7 °F /  3.2 °C 36.4 °F /  2.4 °C 30.23in /  1023.6hPa NNE 1.0mph /  1.6km/h 3.0mph /  4.8km/h 95% 0.01in /  0.3mm
03:00 37.7 °F /  3.2 °C 36.4 °F /  2.4 °C 30.23in /  1023.6hPa Calm   3.0mph /  4.8km/h 95% 0.01in /  0.3mm
03:05 37.7 °F /  3.2 °C 36.4 °F /  2.4 °C 30.23in /  1023.6hPa Calm   2.0mph /  3.2km/h 95% 0.01in /  0.3mm
03:10 37.7 °F /  3.2 °C 36.4 °F /  2.4 °C 30.23in /  1023.6hPa Calm   1.0mph /  1.6km/h 95% 0.01in /  0.3mm
03:15 37.7 °F /  3.2 °C 36.4 °F /  2.4 °C 30.23in /  1023.6hPa Calm     95% 0.01in /  0.3mm
03:20 37.7 °F /  3.2 °C 36.4 °F /  2.4 °C 30.23in /  1023.6hPa Calm     95% 0.01in /  0.3mm
03:25 37.7 °F /  3.2 °C 36.4 °F /  2.4 °C 30.23in /  1023.6hPa Calm     95% 0.01in /  0.3mm
03:30 37.7 °F /  3.2 °C 36.4 °F /  2.4 °C 30.23in /  1023.6hPa Calm     95% 0.01in /  0.3mm
03:35 37.7 °F /  3.2 °C 36.4 °F /  2.4 °C 30.23in /  1023.6hPa Calm     95% 0.01in /  0.3mm
03:45 37.8 °F /  3.2 °C 36.5 °F /  2.5 °C 30.23in /  1023.6hPa Calm     95% 0.01in /  0.3mm
03:50 37.8 °F /  3.2 °C 36.5 °F /  2.5 °C 30.23in /  1023.6hPa Calm     95% 0.01in /  0.3mm
03:55 37.8 °F /  3.2 °C 36.5 °F /  2.5 °C 30.24in /  1023.9hPa Calm     95% 0.01in /  0.3mm
04:00 37.8 °F /  3.2 °C 36.5 °F /  2.5 °C 30.23in /  1023.6hPa Calm     95% 0.01in /  0.3mm
04:05 37.8 °F /  3.2 °C 36.5 °F /  2.5 °C 30.23in /  1023.6hPa Calm     95% 0.01in /  0.3mm
04:10 37.8 °F /  3.2 °C 36.5 °F /  2.5 °C 30.24in /  1023.9hPa Calm     95% 0.01in /  0.3mm
04:15 37.8 °F /  3.2 °C 36.5 °F /  2.5 °C 30.24in /  1023.9hPa Calm     95% 0.01in /  0.3mm
04:20 37.8 °F /  3.2 °C 36.5 °F /  2.5 °C 30.24in /  1023.9hPa NNE 1.0mph /  1.6km/h 2.0mph /  3.2km/h 95% 0.01in /  0.3mm
04:25 37.8 °F /  3.2 °C 36.5 °F /  2.5 °C 30.24in /  1023.9hPa NNE 1.0mph /  1.6km/h 2.0mph /  3.2km/h 95% 0.01in /  0.3mm
04:30 38.2 °F /  3.4 °C 36.9 °F /  2.7 °C 30.24in /  1023.9hPa ESE 2.0mph /  3.2km/h 4.0mph /  6.4km/h 95% 0.01in /  0.3mm
04:35 38.3 °F /  3.5 °C 37.0 °F /  2.8 °C 30.24in /  1023.9hPa Calm   4.0mph /  6.4km/h 95% 0.01in /  0.3mm
04:40 38.4 °F /  3.6 °C 37.1 °F /  2.8 °C 30.24in /  1023.9hPa Calm   4.0mph /  6.4km/h 95% 0.01in /  0.3mm
04:45 38.4 °F /  3.6 °C 37.1 °F /  2.8 °C 30.24in /  1023.9hPa Calm   2.0mph /  3.2km/h 95% 0.01in /  0.3mm
04:50 38.3 °F /  3.5 °C 37.0 °F /  2.8 °C 30.24in /  1023.9hPa Calm   2.0mph /  3.2km/h 95% 0.01in /  0.3mm
05:00 38.1 °F /  3.4 °C 36.8 °F /  2.7 °C 30.25in /  1024.3hPa Calm   1.0mph /  1.6km/h 95% 0.01in /  0.3mm
05:05 37.8 °F /  3.2 °C 36.5 °F /  2.5 °C 30.25in /  1024.3hPa Calm   1.0mph /  1.6km/h 95% 0.01in /  0.3mm
05:10 37.6 °F /  3.1 °C 36.3 °F /  2.4 °C 30.25in /  1024.3hPa Calm     95% 0.01in /  0.3mm
05:20 37.3 °F /  2.9 °C 36.0 °F /  2.2 °C 30.25in /  1024.3hPa Calm     95% 0.01in /  0.3mm
05:25 36.7 °F /  2.6 °C 35.4 °F /  1.9 °C 30.25in /  1024.3hPa Calm     95% 0.01in /  0.3mm
05:30 36.4 °F /  2.4 °C 35.1 °F /  1.7 °C 30.25in /  1024.3hPa Calm     95% 0.01in /  0.3mm
05:35 36.2 °F /  2.3 °C 34.9 °F /  1.6 °C 30.26in /  1024.6hPa Calm     95% 0.01in /  0.3mm
05:40 36.0 °F /  2.2 °C 34.7 °F /  1.5 °C 30.26in /  1024.6hPa Calm     95% 0.01in /  0.3mm
05:45 35.7 °F /  2.1 °C 34.4 °F /  1.3 °C 30.26in /  1024.6hPa Calm     95% 0.01in /  0.3mm
05:50 35.7 °F /  2.1 °C 34.4 °F /  1.3 °C 30.26in /  1024.6hPa Calm     95% 0.01in /  0.3mm
06:00 35.7 °F /  2.1 °C 34.4 °F /  1.3 °C 30.26in /  1024.6hPa Calm     95% 0.01in /  0.3mm
06:05 35.4 °F /  1.9 °C 34.1 °F /  1.2 °C 30.27in /  1024.9hPa Calm     95% 0.01in /  0.3mm
06:10 35.0 °F /  1.7 °C 33.7 °F /  0.9 °C 30.27in /  1024.9hPa Calm     95% 0.01in /  0.3mm
06:15 34.8 °F /  1.6 °C 33.5 °F /  0.8 °C 30.27in /  1024.9hPa Calm     95% 0.01in /  0.3mm
06:20 34.7 °F /  1.5 °C 33.4 °F /  0.8 °C 30.27in /  1024.9hPa Calm     95% 0.01in /  0.3mm
06:25 34.7 °F /  1.5 °C 33.4 °F /  0.8 °C 30.27in /  1024.9hPa Calm     95% 0.01in /  0.3mm
06:30 34.8 °F /  1.6 °C 33.5 °F /  0.8 °C 30.27in /  1024.9hPa Calm     95% 0.01in /  0.3mm
06:35 35.0 °F /  1.7 °C 33.7 °F /  0.9 °C 30.27in /  1024.9hPa Calm     95% 0.01in /  0.3mm
06:40 34.7 °F /  1.5 °C 33.4 °F /  0.8 °C 30.28in /  1025.3hPa Calm     95% 0.01in /  0.3mm
06:50 34.7 °F /  1.5 °C 33.4 °F /  0.8 °C 30.28in /  1025.3hPa Calm     95% 0.01in /  0.3mm
07:00 35.5 °F /  1.9 °C 34.2 °F /  1.2 °C 30.28in /  1025.3hPa Calm     95% 0.01in /  0.3mm
07:05 35.7 °F /  2.1 °C 34.4 °F /  1.3 °C 30.28in /  1025.3hPa Calm     95% 0.01in /  0.3mm
07:10 35.9 °F /  2.2 °C 34.6 °F /  1.4 °C 30.28in /  1025.3hPa Calm     95% 0.01in /  0.3mm
07:15 35.6 °F /  2 °C 34.3 °F /  1.3 °C 30.29in /  1025.6hPa Calm     95% 0.01in /  0.3mm
07:25 34.8 °F /  1.6 °C 33.5 °F /  0.8 °C 30.29in /  1025.6hPa Calm     95% 0.01in /  0.3mm
07:30 34.5 °F /  1.4 °C 33.2 °F /  0.7 °C 30.29in /  1025.6hPa Calm     95% 0.01in /  0.3mm
07:35 34.7 °F /  1.5 °C 33.4 °F /  0.8 °C 30.29in /  1025.6hPa Calm     95% 0.01in /  0.3mm
07:40 34.8 °F /  1.6 °C 33.5 °F /  0.8 °C 30.30in /  1026hPa Calm     95% 0.01in /  0.3mm
07:50 35.5 °F /  1.9 °C 34.2 °F /  1.2 °C 30.29in /  1025.6hPa Calm     95% 0.01in /  0.3mm
07:55 35.5 °F /  1.9 °C 34.2 °F /  1.2 °C 30.30in /  1026hPa Calm     95% 0.01in /  0.3mm
08:00 35.6 °F /  2 °C 34.3 °F /  1.3 °C 30.30in /  1026hPa Calm     95% 0.01in /  0.3mm
08:05 35.6 °F /  2 °C 34.3 °F /  1.3 °C 30.30in /  1026hPa Calm     95% 0.01in /  0.3mm
08:10 35.5 °F /  1.9 °C 34.2 °F /  1.2 °C 30.30in /  1026hPa Calm     95% 0.01in /  0.3mm
08:15 35.4 °F /  1.9 °C 34.1 °F /  1.2 °C 30.30in /  1026hPa Calm     95% 0.01in /  0.3mm
08:20 35.3 °F /  1.8 °C 34.0 °F /  1.1 °C 30.31in /  1026.3hPa Calm     95% 0.01in /  0.3mm
08:30 35.3 °F /  1.8 °C 34.0 °F /  1.1 °C 30.31in /  1026.3hPa Calm     95% 0.01in /  0.3mm
08:35 35.5 °F /  1.9 °C 34.2 °F /  1.2 °C 30.31in /  1026.3hPa Calm     95% 0.01in /  0.3mm
08:40 35.7 °F /  2.1 °C 34.4 °F /  1.3 °C 30.31in /  1026.3hPa Calm     95% 0.01in /  0.3mm
08:45 36.1 °F /  2.3 °C 34.8 °F /  1.6 °C 30.31in /  1026.3hPa Calm     95% 0.01in /  0.3mm
08:55 37.9 °F /  3.3 °C 36.6 °F /  2.6 °C 30.31in /  1026.3hPa Calm     95% 0.01in /  0.3mm
09:00 38.4 °F /  3.6 °C 37.1 °F /  2.8 °C 30.31in /  1026.3hPa Calm     95% 0.01in /  0.3mm
09:10 39.2 °F /  4 °C 37.9 °F /  3.3 °C 30.31in /  1026.3hPa Calm     95% 0.01in /  0.3mm
09:15 39.9 °F /  4.4 °C 38.6 °F /  3.7 °C 30.32in /  1026.6hPa Calm     95% 0.01in /  0.3mm
09:20 40.5 °F /  4.7 °C 39.2 °F /  4 °C 30.32in /  1026.6hPa Calm     95% 0.01in /  0.3mm
09:30 41.6 °F /  5.3 °C 40.5 °F /  4.7 °C 30.32in /  1026.6hPa Calm   1.0mph /  1.6km/h 96% 0.01in /  0.3mm
09:40 42.8 °F /  6 °C 41.7 °F /  5.4 °C 30.32in /  1026.6hPa Calm   2.0mph /  3.2km/h 96% 0.01in /  0.3mm
09:45 42.8 °F /  6 °C 41.7 °F /  5.4 °C 30.32in /  1026.6hPa Calm   2.0mph /  3.2km/h 96% 0.01in /  0.3mm
09:55 43.0 °F /  6.1 °C 41.9 °F /  5.5 °C 30.32in /  1026.6hPa SE 1.0mph /  1.6km/h 2.0mph /  3.2km/h 96% 0.01in /  0.3mm
10:00 43.2 °F /  6.2 °C 41.9 °F /  5.5 °C 30.32in /  1026.6hPa SE 1.0mph /  1.6km/h 3.0mph /  4.8km/h 95% 0.01in /  0.3mm
10:05 43.4 °F /  6.3 °C 42.1 °F /  5.6 °C 30.32in /  1026.6hPa ESE 1.0mph /  1.6km/h 3.0mph /  4.8km/h 95% 0.01in /  0.3mm
10:10 43.3 °F /  6.3 °C 41.7 °F /  5.4 °C 30.32in /  1026.6hPa Calm   3.0mph /  4.8km/h 94% 0.01in /  0.3mm
10:20 44.3 °F /  6.8 °C 41.8 °F /  5.4 °C 30.31in /  1026.3hPa ENE 1.0mph /  1.6km/h 3.0mph /  4.8km/h 91% 0.01in /  0.3mm
10:25 44.7 °F /  7.1 °C 41.4 °F /  5.2 °C 30.31in /  1026.3hPa NE 2.0mph /  3.2km/h 4.0mph /  6.4km/h 88% 0.01in /  0.3mm
10:35 45.0 °F /  7.2 °C 41.4 °F /  5.2 °C 30.31in /  1026.3hPa ESE 1.0mph /  1.6km/h 6.0mph /  9.7km/h 87% 0.01in /  0.3mm
10:40 45.4 °F /  7.4 °C 41.5 °F /  5.3 °C 30.31in /  1026.3hPa NE 2.0mph /  3.2km/h 5.0mph /  8km/h 86% 0.01in /  0.3mm
10:50 45.7 °F /  7.6 °C 40.5 °F /  4.7 °C 30.31in /  1026.3hPa Calm   4.0mph /  6.4km/h 82% 0.01in /  0.3mm
10:55 45.8 °F /  7.7 °C 40.0 °F /  4.4 °C 30.31in /  1026.3hPa Calm   5.0mph /  8km/h 80% 0.01in /  0.3mm
11:00 46.3 °F /  7.9 °C 40.1 °F /  4.5 °C 30.31in /  1026.3hPa Calm   5.0mph /  8km/h 79% 0.01in /  0.3mm
11:05 46.8 °F /  8.2 °C 39.6 °F /  4.2 °C 30.31in /  1026.3hPa Calm   1.0mph /  1.6km/h 76% 0.01in /  0.3mm
11:10 46.9 °F /  8.3 °C 39.7 °F /  4.3 °C 30.31in /  1026.3hPa Calm   4.0mph /  6.4km/h 76% 0.01in /  0.3mm
11:15 47.5 °F /  8.6 °C 40.0 °F /  4.4 °C 30.30in /  1026hPa Calm   4.0mph /  6.4km/h 75% 0.01in /  0.3mm
11:20 47.8 °F /  8.8 °C 40.3 °F /  4.6 °C 30.31in /  1026.3hPa NNE 1.0mph /  1.6km/h 4.0mph /  6.4km/h 75% 0.01in /  0.3mm
11:30 47.9 °F /  8.8 °C 39.7 °F /  4.3 °C 30.31in /  1026.3hPa Calm   4.0mph /  6.4km/h 73% 0.01in /  0.3mm
11:35 48.1 °F /  8.9 °C 39.9 °F /  4.4 °C 30.31in /  1026.3hPa Calm   1.0mph /  1.6km/h 73% 0.01in /  0.3mm
11:40 47.5 °F /  8.6 °C 39.3 °F /  4.1 °C 30.31in /  1026.3hPa Calm   5.0mph /  8km/h 73% 0.01in /  0.3mm
11:45 47.8 °F /  8.8 °C 40.3 °F /  4.6 °C 30.31in /  1026.3hPa Calm   5.0mph /  8km/h 75% 0.01in /  0.3mm
11:55 48.7 °F /  9.3 °C 40.1 °F /  4.5 °C 30.30in /  1026hPa Calm   1.0mph /  1.6km/h 72% 0.01in /  0.3mm
12:00 49.3 °F /  9.6 °C 40.7 °F /  4.8 °C 30.31in /  1026.3hPa SW 1.0mph /  1.6km/h 2.0mph /  3.2km/h 72% 0.01in /  0.3mm
12:10 49.2 °F /  9.6 °C 40.2 °F /  4.6 °C 30.29in /  1025.6hPa Calm   4.0mph /  6.4km/h 71% 0.01in /  0.3mm
12:15 49.4 °F /  9.7 °C 40.0 °F /  4.4 °C 30.29in /  1025.6hPa Calm   4.0mph /  6.4km/h 70% 0.01in /  0.3mm
12:20 50.1 °F /  10.1 °C 41.8 °F /  5.4 °C 30.29in /  1025.6hPa SSW 3.0mph /  4.8km/h 6.0mph /  9.7km/h 73% 0.01in /  0.3mm
12:25 50.4 °F /  10.2 °C 41.7 °F /  5.4 °C 30.29in /  1025.6hPa WSW 5.0mph /  8km/h 7.0mph /  11.3km/h 72% 0.01in /  0.3mm
12:30 50.5 °F /  10.3 °C 41.1 °F /  5.1 °C 30.29in /  1025.6hPa West 4.0mph /  6.4km/h 7.0mph /  11.3km/h 70% 0.01in /  0.3mm
12:40 51.2 °F /  10.7 °C 41.8 °F /  5.4 °C 30.28in /  1025.3hPa SSW 2.0mph /  3.2km/h 8.0mph /  12.9km/h 70% 0.01in /  0.3mm
12:45 51.6 °F /  10.9 °C 42.5 °F /  5.8 °C 30.28in /  1025.3hPa West 4.0mph /  6.4km/h 6.0mph /  9.7km/h 71% 0.01in /  0.3mm
12:50 52.2 °F /  11.2 °C 41.6 °F /  5.3 °C 30.28in /  1025.3hPa Calm   6.0mph /  9.7km/h 67% 0.01in /  0.3mm
12:55 52.7 °F /  11.5 °C 42.4 °F /  5.8 °C 30.28in /  1025.3hPa WSW 3.0mph /  4.8km/h 5.0mph /  8km/h 68% 0.01in /  0.3mm
13:00 52.4 °F /  11.3 °C 41.0 °F /  5 °C 30.28in /  1025.3hPa SW 3.0mph /  4.8km/h 7.0mph /  11.3km/h 65% 0.01in /  0.3mm
13:05 52.4 °F /  11.3 °C 41.0 °F /  5 °C 30.28in /  1025.3hPa SW 3.0mph /  4.8km/h 7.0mph /  11.3km/h 65% 0.01in /  0.3mm
13:10 52.4 °F /  11.3 °C 40.6 °F /  4.8 °C 30.28in /  1025.3hPa WSW 2.0mph /  3.2km/h 6.0mph /  9.7km/h 64% 0.01in /  0.3mm
13:15 52.5 °F /  11.4 °C 40.7 °F /  4.8 °C 30.28in /  1025.3hPa WSW 1.0mph /  1.6km/h 7.0mph /  11.3km/h 64% 0.01in /  0.3mm
13:20 52.8 °F /  11.6 °C 41.0 °F /  5 °C 30.28in /  1025.3hPa WSW 2.0mph /  3.2km/h 7.0mph /  11.3km/h 64% 0.01in /  0.3mm
13:30 53.6 °F /  12 °C 42.5 °F /  5.8 °C 30.28in /  1025.3hPa West 4.0mph /  6.4km/h 9.0mph /  14.5km/h 66% 0.01in /  0.3mm
13:40 53.8 °F /  12.1 °C 41.5 °F /  5.3 °C 30.27in /  1024.9hPa Calm   6.0mph /  9.7km/h 63% 0.01in /  0.3mm
13:50 54.1 °F /  12.3 °C 43.0 °F /  6.1 °C 30.27in /  1024.9hPa NW 5.0mph /  8km/h 9.0mph /  14.5km/h 66% 0.01in /  0.3mm
13:55 53.6 °F /  12 °C 43.3 °F /  6.3 °C 30.27in /  1024.9hPa NW 3.0mph /  4.8km/h 9.0mph /  14.5km/h 68% 0.01in /  0.3mm
14:05 53.5 °F /  11.9 °C 44.0 °F /  6.7 °C 30.27in /  1024.9hPa WNW 5.0mph /  8km/h 9.0mph /  14.5km/h 70% 0.01in /  0.3mm
14:10 53.6 °F /  12 °C 42.9 °F /  6.1 °C 30.27in /  1024.9hPa WNW 6.0mph /  9.7km/h 8.0mph /  12.9km/h 67% 0.01in /  0.3mm
14:15 53.6 °F /  12 °C 42.9 °F /  6.1 °C 30.26in /  1024.6hPa WNW 4.0mph /  6.4km/h 8.0mph /  12.9km/h 67% 0.01in /  0.3mm
14:20 53.5 °F /  11.9 °C 43.2 °F /  6.2 °C 30.25in /  1024.3hPa WNW 1.0mph /  1.6km/h 8.0mph /  12.9km/h 68% 0.01in /  0.3mm
14:30 54.6 °F /  12.6 °C 43.5 °F /  6.4 °C 30.25in /  1024.3hPa WNW 2.0mph /  3.2km/h 7.0mph /  11.3km/h 66% 0.01in /  0.3mm
14:40 55.9 °F /  13.3 °C 42.7 °F /  5.9 °C 30.25in /  1024.3hPa SSW 3.0mph /  4.8km/h 7.0mph /  11.3km/h 61% 0.01in /  0.3mm
14:45 56.6 °F /  13.7 °C 43.3 °F /  6.3 °C 30.25in /  1024.3hPa SSW 2.0mph /  3.2km/h 7.0mph /  11.3km/h 61% 0.01in /  0.3mm
14:50 56.6 °F /  13.7 °C 42.0 °F /  5.6 °C 30.25in /  1024.3hPa SSW 3.0mph /  4.8km/h 7.0mph /  11.3km/h 58% 0.01in /  0.3mm
14:55 56.9 °F /  13.8 °C 41.8 °F /  5.4 °C 30.24in /  1023.9hPa South 1.0mph /  1.6km/h 7.0mph /  11.3km/h 57% 0.01in /  0.3mm
15:00 56.7 °F /  13.7 °C 42.5 °F /  5.8 °C 30.24in /  1023.9hPa WSW 1.0mph /  1.6km/h 7.0mph /  11.3km/h 59% 0.01in /  0.3mm
15:05 56.9 °F /  13.8 °C 42.7 °F /  5.9 °C 30.24in /  1023.9hPa SW 1.0mph /  1.6km/h 6.0mph /  9.7km/h 59% 0.01in /  0.3mm
15:10 57.1 °F /  13.9 °C 42.5 °F /  5.8 °C 30.24in /  1023.9hPa Calm   6.0mph /  9.7km/h 58% 0.01in /  0.3mm
15:15 57.4 °F /  14.1 °C 42.3 °F /  5.7 °C 30.24in /  1023.9hPa SW 2.0mph /  3.2km/h 6.0mph /  9.7km/h 57% 0.01in /  0.3mm
15:20 57.0 °F /  13.9 °C 42.4 °F /  5.8 °C 30.24in /  1023.9hPa South 2.0mph /  3.2km/h 6.0mph /  9.7km/h 58% 0.01in /  0.3mm
15:25 57.3 °F /  14.1 °C 43.1 °F /  6.2 °C 30.24in /  1023.9hPa SSW 1.0mph /  1.6km/h 6.0mph /  9.7km/h 59% 0.01in /  0.3mm
15:30 57.7 °F /  14.3 °C 42.6 °F /  5.9 °C 30.23in /  1023.6hPa SSW 3.0mph /  4.8km/h 7.0mph /  11.3km/h 57% 0.01in /  0.3mm
15:40 57.1 °F /  13.9 °C 42.9 °F /  6.1 °C 30.23in /  1023.6hPa SW 1.0mph /  1.6km/h 7.0mph /  11.3km/h 59% 0.01in /  0.3mm
15:50 57.1 °F /  13.9 °C 42.5 °F /  5.8 °C 30.23in /  1023.6hPa SSW 5.0mph /  8km/h 9.0mph /  14.5km/h 58% 0.01in /  0.3mm
15:55 56.4 °F /  13.6 °C 43.1 °F /  6.2 °C 30.23in /  1023.6hPa SSW 1.0mph /  1.6km/h 9.0mph /  14.5km/h 61% 0.01in /  0.3mm
16:00 56.8 °F /  13.8 °C 43.5 °F /  6.4 °C 30.23in /  1023.6hPa SSW 4.0mph /  6.4km/h 9.0mph /  14.5km/h 61% 0.01in /  0.3mm
16:05 57.2 °F /  14 °C 43.0 °F /  6.1 °C 30.23in /  1023.6hPa SW 4.0mph /  6.4km/h 9.0mph /  14.5km/h 59% 0.01in /  0.3mm
16:10 57.3 °F /  14.1 °C 43.1 °F /  6.2 °C 30.23in /  1023.6hPa SSW 4.0mph /  6.4km/h 10.0mph /  16.1km/h 59% 0.01in /  0.3mm
16:15 57.3 °F /  14.1 °C 43.1 °F /  6.2 °C 30.24in /  1023.9hPa SW 5.0mph /  8km/h 10.0mph /  16.1km/h 59% 0.01in /  0.3mm
16:20 57.2 °F /  14 °C 43.0 °F /  6.1 °C 30.23in /  1023.6hPa SSW 2.0mph /  3.2km/h 8.0mph /  12.9km/h 59% 0.01in /  0.3mm
16:25 57.3 °F /  14.1 °C 42.7 °F /  5.9 °C 30.24in /  1023.9hPa SW 1.0mph /  1.6km/h 7.0mph /  11.3km/h 58% 0.01in /  0.3mm
16:30 57.7 °F /  14.3 °C 43.5 °F /  6.4 °C 30.23in /  1023.6hPa SSW 2.0mph /  3.2km/h 7.0mph /  11.3km/h 59% 0.01in /  0.3mm
16:35 58.0 °F /  14.4 °C 43.8 °F /  6.6 °C 30.23in /  1023.6hPa SW 2.0mph /  3.2km/h 6.0mph /  9.7km/h 59% 0.01in /  0.3mm
16:45 58.0 °F /  14.4 °C 43.3 °F /  6.3 °C 30.24in /  1023.9hPa Calm   7.0mph /  11.3km/h 58% 0.01in /  0.3mm
16:55 59.0 °F /  15 °C 44.3 °F /  6.8 °C 30.23in /  1023.6hPa SW 1.0mph /  1.6km/h 6.0mph /  9.7km/h 58% 0.01in /  0.3mm
17:00 59.0 °F /  15 °C 43.8 °F /  6.6 °C 30.23in /  1023.6hPa Calm   7.0mph /  11.3km/h 57% 0.01in /  0.3mm
17:05 59.0 °F /  15 °C 43.8 °F /  6.6 °C 30.23in /  1023.6hPa Calm   7.0mph /  11.3km/h 57% 0.01in /  0.3mm
17:10 59.0 °F /  15 °C 43.3 °F /  6.3 °C 30.23in /  1023.6hPa WSW 1.0mph /  1.6km/h 5.0mph /  8km/h 56% 0.01in /  0.3mm
17:15 57.9 °F /  14.4 °C 42.8 °F /  6 °C 30.23in /  1023.6hPa SW 1.0mph /  1.6km/h 5.0mph /  8km/h 57% 0.01in /  0.3mm
17:20 57.1 °F /  13.9 °C 42.0 °F /  5.6 °C 30.23in /  1023.6hPa Calm   8.0mph /  12.9km/h 57% 0.01in /  0.3mm
17:25 56.8 °F /  13.8 °C 41.7 °F /  5.4 °C 30.23in /  1023.6hPa SSW 2.0mph /  3.2km/h 8.0mph /  12.9km/h 57% 0.01in /  0.3mm
17:30 56.6 °F /  13.7 °C 41.6 °F /  5.3 °C 30.22in /  1023.2hPa SSW 1.0mph /  1.6km/h 7.0mph /  11.3km/h 57% 0.01in /  0.3mm
17:40 56.0 °F /  13.3 °C 41.4 °F /  5.2 °C 30.22in /  1023.2hPa Calm   7.0mph /  11.3km/h 58% 0.01in /  0.3mm
17:50 55.8 °F /  13.2 °C 41.7 °F /  5.4 °C 30.22in /  1023.2hPa South 1.0mph /  1.6km/h 7.0mph /  11.3km/h 59% 0.01in /  0.3mm
17:55 55.9 °F /  13.3 °C 41.8 °F /  5.4 °C 30.22in /  1023.2hPa SSW 3.0mph /  4.8km/h 6.0mph /  9.7km/h 59% 0.01in /  0.3mm
18:00 55.9 °F /  13.3 °C 41.8 °F /  5.4 °C 30.22in /  1023.2hPa SSW 2.0mph /  3.2km/h 7.0mph /  11.3km/h 59% 0.01in /  0.3mm
18:05 55.8 °F /  13.2 °C 41.3 °F /  5.2 °C 30.22in /  1023.2hPa SSW 3.0mph /  4.8km/h 10.0mph /  16.1km/h 58% 0.01in /  0.3mm
18:10 55.6 °F /  13.1 °C 41.1 °F /  5.1 °C 30.22in /  1023.2hPa SSW 3.0mph /  4.8km/h 10.0mph /  16.1km/h 58% 0.01in /  0.3mm
18:15 55.3 °F /  12.9 °C 40.3 °F /  4.6 °C 30.21in /  1022.9hPa SSW 2.0mph /  3.2km/h 10.0mph /  16.1km/h 57% 0.01in /  0.3mm
18:20 55.1 °F /  12.8 °C 40.6 °F /  4.8 °C 30.21in /  1022.9hPa SSW 1.0mph /  1.6km/h 10.0mph /  16.1km/h 58% 0.01in /  0.3mm
18:25 54.8 °F /  12.7 °C 40.3 °F /  4.6 °C 30.21in /  1022.9hPa Calm   8.0mph /  12.9km/h 58% 0.01in /  0.3mm
18:30 54.4 °F /  12.4 °C 39.9 °F /  4.4 °C 30.21in /  1022.9hPa SSW 3.0mph /  4.8km/h 6.0mph /  9.7km/h 58% 0.01in /  0.3mm
18:40 53.7 °F /  12.1 °C 39.7 °F /  4.3 °C 30.21in /  1022.9hPa Calm   7.0mph /  11.3km/h 59% 0.01in /  0.3mm
18:50 52.7 °F /  11.5 °C 39.6 °F /  4.2 °C 30.22in /  1023.2hPa Calm   3.0mph /  4.8km/h 61% 0.01in /  0.3mm
18:55 52.3 °F /  11.3 °C 39.7 °F /  4.3 °C 30.22in /  1023.2hPa Calm   1.0mph /  1.6km/h 62% 0.01in /  0.3mm
19:00 51.8 °F /  11 °C 39.6 °F /  4.2 °C 30.22in /  1023.2hPa SSW 1.0mph /  1.6km/h 4.0mph /  6.4km/h 63% 0.01in /  0.3mm
19:05 51.4 °F /  10.8 °C 39.2 °F /  4 °C 30.22in /  1023.2hPa Calm   4.0mph /  6.4km/h 63% 0.01in /  0.3mm
19:10 51.3 °F /  10.7 °C 39.1 °F /  3.9 °C 30.22in /  1023.2hPa Calm   6.0mph /  9.7km/h 63% 0.01in /  0.3mm
19:15 51.3 °F /  10.7 °C 39.1 °F /  3.9 °C 30.22in /  1023.2hPa SSW 1.0mph /  1.6km/h 6.0mph /  9.7km/h 63% 0.01in /  0.3mm
19:20 51.1 °F /  10.6 °C 39.0 °F /  3.9 °C 30.22in /  1023.2hPa Calm   6.0mph /  9.7km/h 63% 0.01in /  0.3mm
19:25 50.9 °F /  10.5 °C 38.8 °F /  3.8 °C 30.22in /  1023.2hPa Calm   3.0mph /  4.8km/h 63% 0.01in /  0.3mm
19:30 50.6 °F /  10.3 °C 38.9 °F /  3.8 °C 30.23in /  1023.6hPa Calm   3.0mph /  4.8km/h 64% 0.01in /  0.3mm
19:40 50.0 °F /  10 °C 38.3 °F /  3.5 °C 30.23in /  1023.6hPa SSW 1.0mph /  1.6km/h 6.0mph /  9.7km/h 64% 0.01in /  0.3mm
19:45 50.1 °F /  10.1 °C 38.0 °F /  3.3 °C 30.22in /  1023.2hPa SSW 2.0mph /  3.2km/h 6.0mph /  9.7km/h 63% 0.01in /  0.3mm
19:50 50.2 °F /  10.1 °C 38.1 °F /  3.4 °C 30.22in /  1023.2hPa SSW 1.0mph /  1.6km/h 6.0mph /  9.7km/h 63% 0.01in /  0.3mm
19:55 50.3 °F /  10.2 °C 38.2 °F /  3.4 °C 30.22in /  1023.2hPa SSW 3.0mph /  4.8km/h 6.0mph /  9.7km/h 63% 0.01in /  0.3mm
20:00 50.4 °F /  10.2 °C 38.3 °F /  3.5 °C 30.22in /  1023.2hPa SSW 2.0mph /  3.2km/h 6.0mph /  9.7km/h 63% 0.01in /  0.3mm
20:05 50.6 °F /  10.3 °C 38.1 °F /  3.4 °C 30.22in /  1023.2hPa SSW 3.0mph /  4.8km/h 5.0mph /  8km/h 62% 0.01in /  0.3mm
20:10 50.8 °F /  10.4 °C 38.3 °F /  3.5 °C 30.22in /  1023.2hPa SSW 1.0mph /  1.6km/h 6.0mph /  9.7km/h 62% 0.01in /  0.3mm
20:15 50.8 °F /  10.4 °C 38.3 °F /  3.5 °C 30.22in /  1023.2hPa SSW 2.0mph /  3.2km/h 6.0mph /  9.7km/h 62% 0.01in /  0.3mm
20:20 50.7 °F /  10.4 °C 38.2 °F /  3.4 °C 30.22in /  1023.2hPa SSW 3.0mph /  4.8km/h 6.0mph /  9.7km/h 62% 0.01in /  0.3mm
20:25 50.6 °F /  10.3 °C 38.1 °F /  3.4 °C 30.23in /  1023.6hPa SW 1.0mph /  1.6km/h 7.0mph /  11.3km/h 62% 0.01in /  0.3mm
20:30 50.5 °F /  10.3 °C 38.0 °F /  3.3 °C 30.22in /  1023.2hPa SSW 2.0mph /  3.2km/h 7.0mph /  11.3km/h 62% 0.01in /  0.3mm
20:40 50.2 °F /  10.1 °C 37.7 °F /  3.2 °C 30.22in /  1023.2hPa SSW 4.0mph /  6.4km/h 7.0mph /  11.3km/h 62% 0.01in /  0.3mm
20:50 50.2 °F /  10.1 °C 38.1 °F /  3.4 °C 30.21in /  1022.9hPa SSW 6.0mph /  9.7km/h 11.0mph /  17.7km/h 63% 0.01in /  0.3mm
20:55 50.4 °F /  10.2 °C 38.3 °F /  3.5 °C 30.21in /  1022.9hPa SSW 6.0mph /  9.7km/h 11.0mph /  17.7km/h 63% 0.01in /  0.3mm
21:00 50.4 °F /  10.2 °C 38.3 °F /  3.5 °C 30.21in /  1022.9hPa SSW 5.0mph /  8km/h 11.0mph /  17.7km/h 63% 0.01in /  0.3mm
21:05 50.5 °F /  10.3 °C 38.4 °F /  3.6 °C 30.21in /  1022.9hPa SSW 6.0mph /  9.7km/h 11.0mph /  17.7km/h 63% 0.01in /  0.3mm
21:10 50.5 °F /  10.3 °C 38.4 °F /  3.6 °C 30.21in /  1022.9hPa SSW 5.0mph /  8km/h 10.0mph /  16.1km/h 63% 0.01in /  0.3mm
21:15 50.5 °F /  10.3 °C 38.4 °F /  3.6 °C 30.21in /  1022.9hPa SSW 5.0mph /  8km/h 10.0mph /  16.1km/h 63% 0.01in /  0.3mm
21:20 50.5 °F /  10.3 °C 38.4 °F /  3.6 °C 30.21in /  1022.9hPa SSW 5.0mph /  8km/h 11.0mph /  17.7km/h 63% 0.01in /  0.3mm
21:25 50.5 °F /  10.3 °C 38.4 °F /  3.6 °C 30.20in /  1022.6hPa SSW 6.0mph /  9.7km/h 11.0mph /  17.7km/h 63% 0.01in /  0.3mm
21:30 50.6 °F /  10.3 °C 38.5 °F /  3.6 °C 30.20in /  1022.6hPa SSW 7.0mph /  11.3km/h 11.0mph /  17.7km/h 63% 0.01in /  0.3mm
21:40 50.7 °F /  10.4 °C 38.6 °F /  3.7 °C 30.21in /  1022.9hPa SSW 5.0mph /  8km/h 11.0mph /  17.7km/h 63% 0.01in /  0.3mm
21:45 50.5 °F /  10.3 °C 38.4 °F /  3.6 °C 30.21in /  1022.9hPa SSW 5.0mph /  8km/h 10.0mph /  16.1km/h 63% 0.01in /  0.3mm
21:50 50.5 °F /  10.3 °C 38.4 °F /  3.6 °C 30.21in /  1022.9hPa SSW 4.0mph /  6.4km/h 10.0mph /  16.1km/h 63% 0.01in /  0.3mm
21:55 50.3 °F /  10.2 °C 38.6 °F /  3.7 °C 30.21in /  1022.9hPa SSW 5.0mph /  8km/h 10.0mph /  16.1km/h 64% 0.01in /  0.3mm
22:00 50.0 °F /  10 °C 38.3 °F /  3.5 °C 30.21in /  1022.9hPa SSW 4.0mph /  6.4km/h 10.0mph /  16.1km/h 64% 0.01in /  0.3mm
22:05 49.7 °F /  9.8 °C 38.4 °F /  3.6 °C 30.21in /  1022.9hPa SSW 4.0mph /  6.4km/h 8.0mph /  12.9km/h 65% 0.01in /  0.3mm
22:15 49.4 °F /  9.7 °C 38.5 °F /  3.6 °C 30.21in /  1022.9hPa SSW 3.0mph /  4.8km/h 8.0mph /  12.9km/h 66% 0.01in /  0.3mm
22:20 49.3 °F /  9.6 °C 38.4 °F /  3.6 °C 30.21in /  1022.9hPa SSW 4.0mph /  6.4km/h 8.0mph /  12.9km/h 66% 0.01in /  0.3mm
22:25 49.1 °F /  9.5 °C 38.2 °F /  3.4 °C 30.21in /  1022.9hPa SSW 4.0mph /  6.4km/h 6.0mph /  9.7km/h 66% 0.01in /  0.3mm
22:30 49.2 °F /  9.6 °C 37.9 °F /  3.3 °C 30.20in /  1022.6hPa SSW 5.0mph /  8km/h 8.0mph /  12.9km/h 65% 0.01in /  0.3mm
22:35 49.4 °F /  9.7 °C 37.7 °F /  3.2 °C 30.20in /  1022.6hPa SSW 5.0mph /  8km/h 9.0mph /  14.5km/h 64% 0.01in /  0.3mm
22:45 49.9 °F /  9.9 °C 37.0 °F /  2.8 °C 30.20in /  1022.6hPa SSW 5.0mph /  8km/h 10.0mph /  16.1km/h 61% 0.01in /  0.3mm
22:50 49.9 °F /  9.9 °C 37.0 °F /  2.8 °C 30.19in /  1022.2hPa SSW 5.0mph /  8km/h 10.0mph /  16.1km/h 61% 0.01in /  0.3mm
22:55 49.9 °F /  9.9 °C 36.6 °F /  2.6 °C 30.19in /  1022.2hPa SSW 6.0mph /  9.7km/h 10.0mph /  16.1km/h 60% 0.01in /  0.3mm
23:00 50.6 °F /  10.3 °C 36.8 °F /  2.7 °C 30.18in /  1021.9hPa SSW 7.0mph /  11.3km/h 13.0mph /  20.9km/h 59% 0.01in /  0.3mm
23:05 51.2 °F /  10.7 °C 36.5 °F /  2.5 °C 30.17in /  1021.6hPa SSW 8.0mph /  12.9km/h 13.0mph /  20.9km/h 57% 0.01in /  0.3mm
23:10 51.5 °F /  10.8 °C 36.8 °F /  2.7 °C 30.17in /  1021.6hPa SSW 7.0mph /  11.3km/h 13.0mph /  20.9km/h 57% 0.01in /  0.3mm
23:15 51.6 °F /  10.9 °C 36.9 °F /  2.7 °C 30.18in /  1021.9hPa SSW 7.0mph /  11.3km/h 13.0mph /  20.9km/h 57% 0.01in /  0.3mm
23:20 51.7 °F /  10.9 °C 37.0 °F /  2.8 °C 30.18in /  1021.9hPa SW 7.0mph /  11.3km/h 14.0mph /  22.5km/h 57% 0.01in /  0.3mm
23:25 51.6 °F /  10.9 °C 36.4 °F /  2.4 °C 30.18in /  1021.9hPa SSW 7.0mph /  11.3km/h 14.0mph /  22.5km/h 56% 0.01in /  0.3mm
23:30 51.5 °F /  10.8 °C 36.8 °F /  2.7 °C 30.17in /  1021.6hPa SSW 7.0mph /  11.3km/h 14.0mph /  22.5km/h 57% 0.01in /  0.3mm
23:40 50.9 °F /  10.5 °C 36.7 °F /  2.6 °C 30.17in /  1021.6hPa SSW 6.0mph /  9.7km/h 15.0mph /  24.1km/h 58% 0.01in /  0.3mm
23:50 50.4 °F /  10.2 °C 36.6 °F /  2.6 °C 30.18in /  1021.9hPa SSW 6.0mph /  9.7km/h 12.0mph /  19.3km/h 59% 0.01in /  0.3mm
23:55 50.0 °F /  10 °C 36.7 °F /  2.6 °C 30.17in /  1021.6hPa SSW 7.0mph /  11.3km/h 12.0mph /  19.3km/h 60% 0.01in /  0.3mm
Westford Weather
Compliments of Weather Underground

 
 
Current Radar Loop:

Copyright © WestfordWeather.net 2007-2014. All rights reserved.